sensor_id;sensor_type;location;lat;lon;timestamp;P1;durP1;ratioP1;P2;durP2;ratioP2
15982;SDS011;14442;50.196;8.096;2024-01-15T00:01:17;2.93;;;1.17;;
15982;SDS011;14442;50.196;8.096;2024-01-15T00:03:45;1.10;;;1.00;;
15982;SDS011;14442;50.196;8.096;2024-01-15T00:06:12;0.73;;;0.73;;
15982;SDS011;14442;50.196;8.096;2024-01-15T00:08:38;1.10;;;1.10;;
15982;SDS011;14442;50.196;8.096;2024-01-15T00:11:05;1.03;;;1.00;;
15982;SDS011;14442;50.196;8.096;2024-01-15T00:13:32;1.17;;;1.07;;
15982;SDS011;14442;50.196;8.096;2024-01-15T00:15:59;0.87;;;0.87;;
15982;SDS011;14442;50.196;8.096;2024-01-15T00:18:25;0.70;;;0.70;;
15982;SDS011;14442;50.196;8.096;2024-01-15T00:20:53;0.80;;;0.80;;
15982;SDS011;14442;50.196;8.096;2024-01-15T00:23:20;0.93;;;0.93;;
15982;SDS011;14442;50.196;8.096;2024-01-15T00:25:47;0.90;;;0.90;;
15982;SDS011;14442;50.196;8.096;2024-01-15T00:28:14;1.20;;;1.10;;
15982;SDS011;14442;50.196;8.096;2024-01-15T00:30:40;1.13;;;0.90;;
15982;SDS011;14442;50.196;8.096;2024-01-15T00:33:07;0.80;;;0.80;;
15982;SDS011;14442;50.196;8.096;2024-01-15T00:35:34;0.97;;;0.97;;
15982;SDS011;14442;50.196;8.096;2024-01-15T00:38:02;0.97;;;0.87;;
15982;SDS011;14442;50.196;8.096;2024-01-15T00:40:29;0.70;;;0.70;;
15982;SDS011;14442;50.196;8.096;2024-01-15T00:42:57;1.00;;;1.00;;
15982;SDS011;14442;50.196;8.096;2024-01-15T00:45:23;0.80;;;0.80;;
15982;SDS011;14442;50.196;8.096;2024-01-15T00:47:50;0.83;;;0.83;;
15982;SDS011;14442;50.196;8.096;2024-01-15T00:50:17;0.70;;;0.70;;
15982;SDS011;14442;50.196;8.096;2024-01-15T00:52:43;0.90;;;0.90;;
15982;SDS011;14442;50.196;8.096;2024-01-15T00:55:12;1.37;;;1.27;;
15982;SDS011;14442;50.196;8.096;2024-01-15T00:57:39;0.80;;;0.80;;
15982;SDS011;14442;50.196;8.096;2024-01-15T01:00:06;0.93;;;0.90;;
15982;SDS011;14442;50.196;8.096;2024-01-15T01:02:34;1.07;;;0.97;;
15982;SDS011;14442;50.196;8.096;2024-01-15T01:05:00;0.87;;;0.87;;
15982;SDS011;14442;50.196;8.096;2024-01-15T01:07:28;1.17;;;1.17;;
15982;SDS011;14442;50.196;8.096;2024-01-15T01:09:55;1.03;;;1.03;;
15982;SDS011;14442;50.196;8.096;2024-01-15T01:12:23;0.80;;;0.80;;
15982;SDS011;14442;50.196;8.096;2024-01-15T01:14:49;0.90;;;0.90;;
15982;SDS011;14442;50.196;8.096;2024-01-15T01:17:16;1.10;;;1.00;;
15982;SDS011;14442;50.196;8.096;2024-01-15T01:19:43;1.10;;;1.07;;
15982;SDS011;14442;50.196;8.096;2024-01-15T01:22:10;1.63;;;1.00;;
15982;SDS011;14442;50.196;8.096;2024-01-15T01:24:36;1.27;;;1.17;;
15982;SDS011;14442;50.196;8.096;2024-01-15T01:27:03;1.10;;;1.10;;
15982;SDS011;14442;50.196;8.096;2024-01-15T01:29:31;1.40;;;1.00;;
15982;SDS011;14442;50.196;8.096;2024-01-15T01:31:58;1.10;;;1.00;;
15982;SDS011;14442;50.196;8.096;2024-01-15T01:34:25;1.27;;;1.10;;
15982;SDS011;14442;50.196;8.096;2024-01-15T01:36:52;0.90;;;0.90;;
15982;SDS011;14442;50.196;8.096;2024-01-15T01:39:19;1.47;;;1.37;;
15982;SDS011;14442;50.196;8.096;2024-01-15T01:41:46;1.00;;;1.00;;
15982;SDS011;14442;50.196;8.096;2024-01-15T01:44:12;0.90;;;0.90;;
15982;SDS011;14442;50.196;8.096;2024-01-15T01:46:40;1.13;;;1.10;;
15982;SDS011;14442;50.196;8.096;2024-01-15T01:49:08;1.10;;;1.10;;
15982;SDS011;14442;50.196;8.096;2024-01-15T01:51:35;0.90;;;0.90;;
15982;SDS011;14442;50.196;8.096;2024-01-15T01:54:04;0.90;;;0.90;;
15982;SDS011;14442;50.196;8.096;2024-01-15T01:56:33;1.00;;;1.00;;
15982;SDS011;14442;50.196;8.096;2024-01-15T01:59:00;0.93;;;0.93;;
15982;SDS011;14442;50.196;8.096;2024-01-15T02:01:27;0.97;;;0.97;;
15982;SDS011;14442;50.196;8.096;2024-01-15T02:03:56;1.10;;;1.10;;
15982;SDS011;14442;50.196;8.096;2024-01-15T02:06:23;1.57;;;1.10;;
15982;SDS011;14442;50.196;8.096;2024-01-15T02:08:50;1.17;;;1.17;;
15982;SDS011;14442;50.196;8.096;2024-01-15T02:11:17;1.00;;;1.00;;
15982;SDS011;14442;50.196;8.096;2024-01-15T02:13:44;1.00;;;1.00;;
15982;SDS011;14442;50.196;8.096;2024-01-15T02:16:11;1.33;;;1.23;;
15982;SDS011;14442;50.196;8.096;2024-01-15T02:18:41;1.10;;;1.00;;
15982;SDS011;14442;50.196;8.096;2024-01-15T02:21:09;1.10;;;1.10;;
15982;SDS011;14442;50.196;8.096;2024-01-15T02:23:38;0.97;;;0.97;;
15982;SDS011;14442;50.196;8.096;2024-01-15T02:26:05;1.03;;;1.03;;
15982;SDS011;14442;50.196;8.096;2024-01-15T02:28:32;0.90;;;0.90;;
15982;SDS011;14442;50.196;8.096;2024-01-15T02:30:59;1.00;;;1.00;;
15982;SDS011;14442;50.196;8.096;2024-01-15T02:33:26;1.10;;;1.10;;
15982;SDS011;14442;50.196;8.096;2024-01-15T02:35:53;1.10;;;1.10;;
15982;SDS011;14442;50.196;8.096;2024-01-15T02:38:20;1.07;;;0.97;;
15982;SDS011;14442;50.196;8.096;2024-01-15T02:40:49;1.30;;;1.20;;
15982;SDS011;14442;50.196;8.096;2024-01-15T02:43:16;1.23;;;1.13;;
15982;SDS011;14442;50.196;8.096;2024-01-15T02:45:44;1.40;;;1.30;;
15982;SDS011;14442;50.196;8.096;2024-01-15T02:48:10;1.13;;;1.13;;
15982;SDS011;14442;50.196;8.096;2024-01-15T02:50:37;1.00;;;1.00;;
15982;SDS011;14442;50.196;8.096;2024-01-15T02:53:04;1.20;;;1.20;;
15982;SDS011;14442;50.196;8.096;2024-01-15T02:55:31;1.17;;;1.10;;
15982;SDS011;14442;50.196;8.096;2024-01-15T02:57:59;0.93;;;0.93;;
15982;SDS011;14442;50.196;8.096;2024-01-15T03:00:26;1.20;;;1.10;;
15982;SDS011;14442;50.196;8.096;2024-01-15T03:02:53;0.90;;;0.90;;
15982;SDS011;14442;50.196;8.096;2024-01-15T03:05:20;1.40;;;1.30;;
15982;SDS011;14442;50.196;8.096;2024-01-15T03:07:47;0.90;;;0.90;;
15982;SDS011;14442;50.196;8.096;2024-01-15T03:10:14;1.20;;;1.10;;
15982;SDS011;14442;50.196;8.096;2024-01-15T03:12:41;1.13;;;1.07;;
15982;SDS011;14442;50.196;8.096;2024-01-15T03:15:09;1.00;;;1.00;;
15982;SDS011;14442;50.196;8.096;2024-01-15T03:17:36;1.17;;;1.13;;
15982;SDS011;14442;50.196;8.096;2024-01-15T03:20:02;1.03;;;1.00;;
15982;SDS011;14442;50.196;8.096;2024-01-15T03:22:30;1.20;;;1.10;;
15982;SDS011;14442;50.196;8.096;2024-01-15T03:24:56;0.80;;;0.80;;
15982;SDS011;14442;50.196;8.096;2024-01-15T03:27:23;1.13;;;0.90;;
15982;SDS011;14442;50.196;8.096;2024-01-15T03:29:51;2.37;;;1.30;;
15982;SDS011;14442;50.196;8.096;2024-01-15T03:32:19;1.47;;;1.37;;
15982;SDS011;14442;50.196;8.096;2024-01-15T03:34:45;1.10;;;1.00;;
15982;SDS011;14442;50.196;8.096;2024-01-15T03:37:13;1.37;;;1.33;;
15982;SDS011;14442;50.196;8.096;2024-01-15T03:39:40;1.10;;;1.00;;
15982;SDS011;14442;50.196;8.096;2024-01-15T03:42:06;1.20;;;1.20;;
15982;SDS011;14442;50.196;8.096;2024-01-15T03:44:33;1.30;;;1.20;;
15982;SDS011;14442;50.196;8.096;2024-01-15T03:47:00;0.80;;;0.80;;
15982;SDS011;14442;50.196;8.096;2024-01-15T03:49:28;1.00;;;1.00;;
15982;SDS011;14442;50.196;8.096;2024-01-15T03:51:55;1.13;;;1.10;;
15982;SDS011;14442;50.196;8.096;2024-01-15T03:54:22;1.23;;;1.10;;
15982;SDS011;14442;50.196;8.096;2024-01-15T03:56:48;1.20;;;1.10;;
15982;SDS011;14442;50.196;8.096;2024-01-15T03:59:15;1.00;;;1.00;;
15982;SDS011;14442;50.196;8.096;2024-01-15T04:01:47;1.17;;;1.07;;
15982;SDS011;14442;50.196;8.096;2024-01-15T04:04:15;1.10;;;1.10;;
15982;SDS011;14442;50.196;8.096;2024-01-15T04:06:43;1.30;;;1.20;;
15982;SDS011;14442;50.196;8.096;2024-01-15T04:09:11;1.00;;;1.00;;
15982;SDS011;14442;50.196;8.096;2024-01-15T04:11:38;1.40;;;1.30;;
15982;SDS011;14442;50.196;8.096;2024-01-15T04:14:05;1.13;;;1.10;;
15982;SDS011;14442;50.196;8.096;2024-01-15T04:16:31;1.60;;;1.10;;
15982;SDS011;14442;50.196;8.096;2024-01-15T04:18:58;1.20;;;1.10;;
15982;SDS011;14442;50.196;8.096;2024-01-15T04:21:25;1.13;;;1.10;;
15982;SDS011;14442;50.196;8.096;2024-01-15T04:23:53;1.00;;;1.00;;
15982;SDS011;14442;50.196;8.096;2024-01-15T04:26:19;0.93;;;0.93;;
15982;SDS011;14442;50.196;8.096;2024-01-15T04:28:46;0.90;;;0.90;;
15982;SDS011;14442;50.196;8.096;2024-01-15T04:31:20;1.23;;;1.20;;
15982;SDS011;14442;50.196;8.096;2024-01-15T04:33:48;1.07;;;1.03;;
15982;SDS011;14442;50.196;8.096;2024-01-15T04:36:15;1.17;;;1.13;;
15982;SDS011;14442;50.196;8.096;2024-01-15T04:38:41;1.40;;;1.30;;
15982;SDS011;14442;50.196;8.096;2024-01-15T04:41:11;1.23;;;1.13;;
15982;SDS011;14442;50.196;8.096;2024-01-15T04:43:38;1.33;;;1.20;;
15982;SDS011;14442;50.196;8.096;2024-01-15T04:46:05;1.20;;;1.00;;
15982;SDS011;14442;50.196;8.096;2024-01-15T04:48:31;1.50;;;1.40;;
15982;SDS011;14442;50.196;8.096;2024-01-15T04:50:58;1.20;;;1.20;;
15982;SDS011;14442;50.196;8.096;2024-01-15T04:53:25;1.20;;;1.10;;
15982;SDS011;14442;50.196;8.096;2024-01-15T04:55:52;1.47;;;1.37;;
15982;SDS011;14442;50.196;8.096;2024-01-15T04:58:20;1.20;;;1.10;;
15982;SDS011;14442;50.196;8.096;2024-01-15T05:00:50;1.17;;;1.10;;
15982;SDS011;14442;50.196;8.096;2024-01-15T05:03:16;1.97;;;1.87;;
15982;SDS011;14442;50.196;8.096;2024-01-15T05:05:43;2.03;;;1.90;;
15982;SDS011;14442;50.196;8.096;2024-01-15T05:08:10;2.37;;;2.17;;
15982;SDS011;14442;50.196;8.096;2024-01-15T05:10:36;2.57;;;2.20;;
15982;SDS011;14442;50.196;8.096;2024-01-15T05:13:03;2.77;;;2.53;;
15982;SDS011;14442;50.196;8.096;2024-01-15T05:15:31;3.63;;;3.20;;
15982;SDS011;14442;50.196;8.096;2024-01-15T05:17:58;4.70;;;3.33;;
15982;SDS011;14442;50.196;8.096;2024-01-15T05:20:25;4.13;;;3.37;;
15982;SDS011;14442;50.196;8.096;2024-01-15T05:22:51;4.90;;;3.87;;
15982;SDS011;14442;50.196;8.096;2024-01-15T05:25:18;5.33;;;3.97;;
15982;SDS011;14442;50.196;8.096;2024-01-15T05:27:45;5.00;;;4.00;;
15982;SDS011;14442;50.196;8.096;2024-01-15T05:30:12;5.23;;;3.80;;
15982;SDS011;14442;50.196;8.096;2024-01-15T05:32:40;6.10;;;4.33;;
15982;SDS011;14442;50.196;8.096;2024-01-15T05:35:07;4.80;;;4.30;;
15982;SDS011;14442;50.196;8.096;2024-01-15T05:37:34;5.40;;;4.43;;
15982;SDS011;14442;50.196;8.096;2024-01-15T05:40:01;5.03;;;4.47;;
15982;SDS011;14442;50.196;8.096;2024-01-15T05:42:29;4.83;;;4.27;;
15982;SDS011;14442;50.196;8.096;2024-01-15T05:44:57;5.30;;;4.17;;
15982;SDS011;14442;50.196;8.096;2024-01-15T05:47:24;4.97;;;4.13;;
15982;SDS011;14442;50.196;8.096;2024-01-15T05:49:52;5.13;;;4.30;;
15982;SDS011;14442;50.196;8.096;2024-01-15T05:52:19;4.97;;;3.83;;
15982;SDS011;14442;50.196;8.096;2024-01-15T05:54:46;4.17;;;3.50;;
15982;SDS011;14442;50.196;8.096;2024-01-15T05:57:13;4.63;;;3.60;;
15982;SDS011;14442;50.196;8.096;2024-01-15T05:59:40;4.27;;;3.50;;
15982;SDS011;14442;50.196;8.096;2024-01-15T06:02:07;3.70;;;3.20;;
15982;SDS011;14442;50.196;8.096;2024-01-15T06:04:34;4.40;;;3.83;;
15982;SDS011;14442;50.196;8.096;2024-01-15T06:07:02;4.03;;;3.40;;
15982;SDS011;14442;50.196;8.096;2024-01-15T06:09:29;4.23;;;3.83;;
15982;SDS011;14442;50.196;8.096;2024-01-15T06:11:56;3.43;;;3.13;;
15982;SDS011;14442;50.196;8.096;2024-01-15T06:14:23;4.27;;;3.80;;
15982;SDS011;14442;50.196;8.096;2024-01-15T06:16:53;4.33;;;3.77;;
15982;SDS011;14442;50.196;8.096;2024-01-15T06:19:22;3.83;;;3.23;;
15982;SDS011;14442;50.196;8.096;2024-01-15T06:21:50;5.07;;;3.63;;
15982;SDS011;14442;50.196;8.096;2024-01-15T06:24:18;4.07;;;3.67;;
15982;SDS011;14442;50.196;8.096;2024-01-15T06:26:46;3.90;;;3.47;;
15982;SDS011;14442;50.196;8.096;2024-01-15T06:29:12;4.10;;;3.70;;
15982;SDS011;14442;50.196;8.096;2024-01-15T06:31:39;3.73;;;3.40;;
15982;SDS011;14442;50.196;8.096;2024-01-15T06:34:06;3.97;;;3.57;;
15982;SDS011;14442;50.196;8.096;2024-01-15T06:36:32;4.37;;;3.97;;
15982;SDS011;14442;50.196;8.096;2024-01-15T06:38:59;3.83;;;3.40;;
15982;SDS011;14442;50.196;8.096;2024-01-15T06:41:28;4.43;;;4.03;;
15982;SDS011;14442;50.196;8.096;2024-01-15T06:43:57;6.20;;;4.33;;
15982;SDS011;14442;50.196;8.096;2024-01-15T06:46:24;6.60;;;4.90;;
15982;SDS011;14442;50.196;8.096;2024-01-15T06:48:51;7.57;;;5.17;;
15982;SDS011;14442;50.196;8.096;2024-01-15T06:51:17;11.80;;;7.37;;
15982;SDS011;14442;50.196;8.096;2024-01-15T06:53:44;16.40;;;8.23;;
15982;SDS011;14442;50.196;8.096;2024-01-15T06:56:12;12.37;;;7.80;;
15982;SDS011;14442;50.196;8.096;2024-01-15T06:58:40;14.03;;;7.77;;
15982;SDS011;14442;50.196;8.096;2024-01-15T07:01:07;12.47;;;7.93;;
15982;SDS011;14442;50.196;8.096;2024-01-15T07:03:34;13.07;;;8.20;;
15982;SDS011;14442;50.196;8.096;2024-01-15T07:06:02;13.93;;;7.90;;
15982;SDS011;14442;50.196;8.096;2024-01-15T07:08:29;13.47;;;7.87;;
15982;SDS011;14442;50.196;8.096;2024-01-15T07:10:56;13.93;;;8.00;;
15982;SDS011;14442;50.196;8.096;2024-01-15T07:13:25;12.73;;;7.87;;
15982;SDS011;14442;50.196;8.096;2024-01-15T07:15:53;14.03;;;8.07;;
15982;SDS011;14442;50.196;8.096;2024-01-15T07:18:20;12.00;;;7.57;;
15982;SDS011;14442;50.196;8.096;2024-01-15T07:20:47;10.87;;;7.47;;
15982;SDS011;14442;50.196;8.096;2024-01-15T07:23:15;10.00;;;7.20;;
15982;SDS011;14442;50.196;8.096;2024-01-15T07:25:42;11.40;;;7.10;;
15982;SDS011;14442;50.196;8.096;2024-01-15T07:28:09;10.73;;;7.20;;
15982;SDS011;14442;50.196;8.096;2024-01-15T07:30:36;12.67;;;8.13;;
15982;SDS011;14442;50.196;8.096;2024-01-15T07:33:05;12.73;;;9.03;;
15982;SDS011;14442;50.196;8.096;2024-01-15T07:35:32;15.63;;;10.30;;
15982;SDS011;14442;50.196;8.096;2024-01-15T07:37:59;14.23;;;9.27;;
15982;SDS011;14442;50.196;8.096;2024-01-15T07:40:25;15.47;;;10.57;;
15982;SDS011;14442;50.196;8.096;2024-01-15T07:42:52;17.03;;;11.33;;
15982;SDS011;14442;50.196;8.096;2024-01-15T07:45:19;16.90;;;11.47;;
15982;SDS011;14442;50.196;8.096;2024-01-15T07:47:49;18.37;;;11.67;;
15982;SDS011;14442;50.196;8.096;2024-01-15T07:50:18;13.87;;;10.13;;
15982;SDS011;14442;50.196;8.096;2024-01-15T07:52:45;15.87;;;10.80;;
15982;SDS011;14442;50.196;8.096;2024-01-15T07:55:12;13.67;;;10.07;;
15982;SDS011;14442;50.196;8.096;2024-01-15T07:57:38;13.90;;;9.97;;
15982;SDS011;14442;50.196;8.096;2024-01-15T08:00:06;13.73;;;10.30;;
15982;SDS011;14442;50.196;8.096;2024-01-15T08:02:34;16.03;;;10.87;;
15982;SDS011;14442;50.196;8.096;2024-01-15T08:05:00;14.10;;;10.43;;
15982;SDS011;14442;50.196;8.096;2024-01-15T08:07:28;14.37;;;9.90;;
15982;SDS011;14442;50.196;8.096;2024-01-15T08:09:55;14.47;;;10.27;;
15982;SDS011;14442;50.196;8.096;2024-01-15T08:12:22;13.83;;;9.83;;
15982;SDS011;14442;50.196;8.096;2024-01-15T08:14:49;13.60;;;9.60;;
15982;SDS011;14442;50.196;8.096;2024-01-15T08:17:15;12.17;;;9.13;;
15982;SDS011;14442;50.196;8.096;2024-01-15T08:19:42;12.73;;;9.57;;
15982;SDS011;14442;50.196;8.096;2024-01-15T08:22:09;12.40;;;8.93;;
15982;SDS011;14442;50.196;8.096;2024-01-15T08:24:37;11.50;;;9.03;;
15982;SDS011;14442;50.196;8.096;2024-01-15T08:27:04;12.77;;;9.53;;
15982;SDS011;14442;50.196;8.096;2024-01-15T08:29:31;11.10;;;8.77;;
15982;SDS011;14442;50.196;8.096;2024-01-15T08:32:00;12.27;;;9.10;;
15982;SDS011;14442;50.196;8.096;2024-01-15T08:34:26;12.83;;;9.00;;
15982;SDS011;14442;50.196;8.096;2024-01-15T08:36:53;9.50;;;8.20;;
15982;SDS011;14442;50.196;8.096;2024-01-15T08:39:20;11.10;;;8.27;;
15982;SDS011;14442;50.196;8.096;2024-01-15T08:41:48;9.10;;;7.50;;
15982;SDS011;14442;50.196;8.096;2024-01-15T08:44:15;9.10;;;7.40;;
15982;SDS011;14442;50.196;8.096;2024-01-15T08:46:41;8.07;;;6.77;;
15982;SDS011;14442;50.196;8.096;2024-01-15T08:49:08;8.17;;;7.07;;
15982;SDS011;14442;50.196;8.096;2024-01-15T08:51:35;8.70;;;6.70;;
15982;SDS011;14442;50.196;8.096;2024-01-15T08:54:03;7.83;;;6.63;;
15982;SDS011;14442;50.196;8.096;2024-01-15T08:56:29;7.60;;;6.50;;
15982;SDS011;14442;50.196;8.096;2024-01-15T08:58:58;11.13;;;6.60;;
15982;SDS011;14442;50.196;8.096;2024-01-15T09:01:27;7.47;;;6.67;;
15982;SDS011;14442;50.196;8.096;2024-01-15T09:03:54;6.77;;;5.83;;
15982;SDS011;14442;50.196;8.096;2024-01-15T09:06:20;6.53;;;5.83;;
15982;SDS011;14442;50.196;8.096;2024-01-15T09:08:49;6.83;;;6.10;;
15982;SDS011;14442;50.196;8.096;2024-01-15T09:11:16;6.60;;;5.73;;
15982;SDS011;14442;50.196;8.096;2024-01-15T09:13:48;6.80;;;5.60;;
15982;SDS011;14442;50.196;8.096;2024-01-15T09:16:16;7.10;;;5.27;;
15982;SDS011;14442;50.196;8.096;2024-01-15T09:18:43;6.37;;;4.83;;
15982;SDS011;14442;50.196;8.096;2024-01-15T09:21:11;6.23;;;5.03;;
15982;SDS011;14442;50.196;8.096;2024-01-15T09:23:38;5.53;;;4.70;;
15982;SDS011;14442;50.196;8.096;2024-01-15T09:26:06;5.00;;;4.50;;
15982;SDS011;14442;50.196;8.096;2024-01-15T09:28:34;4.90;;;4.07;;
15982;SDS011;14442;50.196;8.096;2024-01-15T09:31:01;5.10;;;4.17;;
15982;SDS011;14442;50.196;8.096;2024-01-15T09:33:29;5.33;;;4.60;;
15982;SDS011;14442;50.196;8.096;2024-01-15T09:35:55;5.20;;;4.33;;
15982;SDS011;14442;50.196;8.096;2024-01-15T09:38:22;4.47;;;4.00;;
15982;SDS011;14442;50.196;8.096;2024-01-15T09:40:50;5.90;;;4.43;;
15982;SDS011;14442;50.196;8.096;2024-01-15T09:43:17;4.87;;;4.33;;
15982;SDS011;14442;50.196;8.096;2024-01-15T09:45:45;4.30;;;3.77;;
15982;SDS011;14442;50.196;8.096;2024-01-15T09:48:12;4.90;;;3.63;;
15982;SDS011;14442;50.196;8.096;2024-01-15T09:50:40;7.13;;;3.90;;
15982;SDS011;14442;50.196;8.096;2024-01-15T09:53:07;6.57;;;3.70;;
15982;SDS011;14442;50.196;8.096;2024-01-15T09:55:35;6.00;;;3.60;;
15982;SDS011;14442;50.196;8.096;2024-01-15T09:58:02;6.30;;;3.80;;
15982;SDS011;14442;50.196;8.096;2024-01-15T10:00:30;4.33;;;3.47;;
15982;SDS011;14442;50.196;8.096;2024-01-15T10:02:57;5.43;;;3.10;;
15982;SDS011;14442;50.196;8.096;2024-01-15T10:05:25;5.57;;;3.77;;
15982;SDS011;14442;50.196;8.096;2024-01-15T10:07:54;4.27;;;2.93;;
15982;SDS011;14442;50.196;8.096;2024-01-15T10:10:22;3.93;;;2.70;;
15982;SDS011;14442;50.196;8.096;2024-01-15T10:12:49;4.97;;;2.97;;
15982;SDS011;14442;50.196;8.096;2024-01-15T10:15:16;4.47;;;2.53;;
15982;SDS011;14442;50.196;8.096;2024-01-15T10:17:42;3.17;;;2.83;;
15982;SDS011;14442;50.196;8.096;2024-01-15T10:20:10;4.03;;;2.47;;
15982;SDS011;14442;50.196;8.096;2024-01-15T10:22:39;8.03;;;2.93;;
15982;SDS011;14442;50.196;8.096;2024-01-15T10:25:11;5.97;;;2.67;;
15982;SDS011;14442;50.196;8.096;2024-01-15T10:27:38;14.67;;;3.10;;
15982;SDS011;14442;50.196;8.096;2024-01-15T10:30:05;7.30;;;2.83;;
15982;SDS011;14442;50.196;8.096;2024-01-15T10:32:33;7.67;;;2.30;;
15982;SDS011;14442;50.196;8.096;2024-01-15T10:34:59;3.97;;;2.30;;
15982;SDS011;14442;50.196;8.096;2024-01-15T10:37:26;4.77;;;2.13;;
15982;SDS011;14442;50.196;8.096;2024-01-15T10:39:53;5.03;;;2.10;;
15982;SDS011;14442;50.196;8.096;2024-01-15T10:42:21;4.10;;;1.97;;
15982;SDS011;14442;50.196;8.096;2024-01-15T10:44:47;4.67;;;2.00;;
15982;SDS011;14442;50.196;8.096;2024-01-15T10:47:14;7.27;;;2.57;;
15982;SDS011;14442;50.196;8.096;2024-01-15T10:49:42;8.23;;;2.40;;
15982;SDS011;14442;50.196;8.096;2024-01-15T10:52:09;2.67;;;2.30;;
15982;SDS011;14442;50.196;8.096;2024-01-15T10:54:35;4.80;;;2.30;;
15982;SDS011;14442;50.196;8.096;2024-01-15T10:57:04;2.80;;;2.13;;
15982;SDS011;14442;50.196;8.096;2024-01-15T10:59:33;5.50;;;2.23;;
15982;SDS011;14442;50.196;8.096;2024-01-15T11:02:00;2.60;;;1.80;;
15982;SDS011;14442;50.196;8.096;2024-01-15T11:04:27;4.03;;;1.80;;
15982;SDS011;14442;50.196;8.096;2024-01-15T11:06:54;7.57;;;1.70;;
15982;SDS011;14442;50.196;8.096;2024-01-15T11:09:22;2.77;;;1.73;;
15982;SDS011;14442;50.196;8.096;2024-01-15T11:11:51;3.37;;;1.60;;
15982;SDS011;14442;50.196;8.096;2024-01-15T11:14:38;5.30;;;2.17;;
15982;SDS011;14442;50.196;8.096;2024-01-15T11:17:08;2.97;;;2.10;;
15982;SDS011;14442;50.196;8.096;2024-01-15T11:19:36;4.73;;;1.80;;
15982;SDS011;14442;50.196;8.096;2024-01-15T11:22:05;3.70;;;1.73;;
15982;SDS011;14442;50.196;8.096;2024-01-15T11:24:33;3.90;;;1.97;;
15982;SDS011;14442;50.196;8.096;2024-01-15T11:27:04;3.87;;;2.20;;
15982;SDS011;14442;50.196;8.096;2024-01-15T11:29:32;8.57;;;2.17;;
15982;SDS011;14442;50.196;8.096;2024-01-15T11:32:02;3.33;;;1.50;;
15982;SDS011;14442;50.196;8.096;2024-01-15T11:37:15;4.27;;;1.60;;
15982;SDS011;14442;50.196;8.096;2024-01-15T11:39:42;6.33;;;2.30;;
15982;SDS011;14442;50.196;8.096;2024-01-15T11:42:09;3.97;;;1.30;;
15982;SDS011;14442;50.196;8.096;2024-01-15T11:44:37;1.43;;;1.30;;
15982;SDS011;14442;50.196;8.096;2024-01-15T11:47:06;2.30;;;1.53;;
15982;SDS011;14442;50.196;8.096;2024-01-15T11:49:41;2.47;;;1.80;;
15982;SDS011;14442;50.196;8.096;2024-01-15T11:52:25;2.60;;;1.40;;
15982;SDS011;14442;50.196;8.096;2024-01-15T11:54:54;2.63;;;1.70;;
15982;SDS011;14442;50.196;8.096;2024-01-15T11:57:28;2.93;;;1.47;;
15982;SDS011;14442;50.196;8.096;2024-01-15T12:00:00;3.60;;;1.43;;
15982;SDS011;14442;50.196;8.096;2024-01-15T12:02:30;3.87;;;1.63;;
15982;SDS011;14442;50.196;8.096;2024-01-15T12:04:57;2.03;;;1.20;;
15982;SDS011;14442;50.196;8.096;2024-01-15T12:07:23;6.53;;;1.90;;
15982;SDS011;14442;50.196;8.096;2024-01-15T12:09:50;2.03;;;1.50;;
15982;SDS011;14442;50.196;8.096;2024-01-15T12:12:19;1.60;;;1.50;;
15982;SDS011;14442;50.196;8.096;2024-01-15T12:14:53;2.63;;;1.43;;
15982;SDS011;14442;50.196;8.096;2024-01-15T12:17:20;5.30;;;1.40;;
15982;SDS011;14442;50.196;8.096;2024-01-15T12:19:48;1.30;;;1.20;;
15982;SDS011;14442;50.196;8.096;2024-01-15T12:22:15;6.40;;;1.40;;
15982;SDS011;14442;50.196;8.096;2024-01-15T12:24:41;4.53;;;1.93;;
15982;SDS011;14442;50.196;8.096;2024-01-15T12:27:08;4.83;;;2.10;;
15982;SDS011;14442;50.196;8.096;2024-01-15T12:29:35;4.13;;;1.80;;
15982;SDS011;14442;50.196;8.096;2024-01-15T12:32:04;2.40;;;1.63;;
15982;SDS011;14442;50.196;8.096;2024-01-15T12:34:33;8.30;;;1.80;;
15982;SDS011;14442;50.196;8.096;2024-01-15T12:37:01;6.47;;;1.77;;
15982;SDS011;14442;50.196;8.096;2024-01-15T12:39:28;10.67;;;2.70;;
15982;SDS011;14442;50.196;8.096;2024-01-15T12:41:55;6.80;;;1.80;;
15982;SDS011;14442;50.196;8.096;2024-01-15T12:44:21;7.43;;;1.87;;
15982;SDS011;14442;50.196;8.096;2024-01-15T12:46:49;16.80;;;2.80;;
15982;SDS011;14442;50.196;8.096;2024-01-15T12:49:15;7.53;;;1.98;;
15982;SDS011;14442;50.196;8.096;2024-01-15T12:51:43;3.83;;;1.63;;
15982;SDS011;14442;50.196;8.096;2024-01-15T12:54:19;3.30;;;1.27;;
15982;SDS011;14442;50.196;8.096;2024-01-15T12:56:45;4.97;;;1.50;;
15982;SDS011;14442;50.196;8.096;2024-01-15T12:59:12;3.27;;;1.17;;
15982;SDS011;14442;50.196;8.096;2024-01-15T13:01:39;3.57;;;1.47;;
15982;SDS011;14442;50.196;8.096;2024-01-15T13:04:06;6.03;;;1.53;;
15982;SDS011;14442;50.196;8.096;2024-01-15T13:06:34;5.53;;;1.50;;
15982;SDS011;14442;50.196;8.096;2024-01-15T13:09:01;2.63;;;1.30;;
15982;SDS011;14442;50.196;8.096;2024-01-15T13:11:31;3.50;;;1.07;;
15982;SDS011;14442;50.196;8.096;2024-01-15T13:13:58;3.37;;;1.37;;
15982;SDS011;14442;50.196;8.096;2024-01-15T13:16:25;1.67;;;1.30;;
15982;SDS011;14442;50.196;8.096;2024-01-15T13:18:54;1.90;;;1.17;;
15982;SDS011;14442;50.196;8.096;2024-01-15T13:21:21;3.43;;;0.90;;
15982;SDS011;14442;50.196;8.096;2024-01-15T13:23:48;4.10;;;1.37;;
15982;SDS011;14442;50.196;8.096;2024-01-15T13:26:14;3.03;;;1.50;;
15982;SDS011;14442;50.196;8.096;2024-01-15T13:28:44;1.10;;;1.00;;
15982;SDS011;14442;50.196;8.096;2024-01-15T13:31:11;3.00;;;1.10;;
15982;SDS011;14442;50.196;8.096;2024-01-15T13:33:38;1.23;;;1.00;;
15982;SDS011;14442;50.196;8.096;2024-01-15T13:36:05;2.47;;;1.43;;
15982;SDS011;14442;50.196;8.096;2024-01-15T13:38:33;2.63;;;1.33;;
15982;SDS011;14442;50.196;8.096;2024-01-15T13:41:01;1.60;;;0.97;;
15982;SDS011;14442;50.196;8.096;2024-01-15T13:43:28;1.43;;;0.90;;
15982;SDS011;14442;50.196;8.096;2024-01-15T13:45:56;1.90;;;0.80;;
15982;SDS011;14442;50.196;8.096;2024-01-15T13:48:23;1.17;;;1.00;;
15982;SDS011;14442;50.196;8.096;2024-01-15T13:50:50;2.87;;;0.80;;
15982;SDS011;14442;50.196;8.096;2024-01-15T13:53:17;1.10;;;0.90;;
15982;SDS011;14442;50.196;8.096;2024-01-15T13:55:45;1.00;;;0.80;;
15982;SDS011;14442;50.196;8.096;2024-01-15T13:58:12;1.37;;;0.70;;
15982;SDS011;14442;50.196;8.096;2024-01-15T14:00:39;1.33;;;0.80;;
15982;SDS011;14442;50.196;8.096;2024-01-15T14:03:07;2.37;;;1.07;;
15982;SDS011;14442;50.196;8.096;2024-01-15T14:05:34;1.27;;;0.77;;
15982;SDS011;14442;50.196;8.096;2024-01-15T14:08:01;2.63;;;1.03;;
15982;SDS011;14442;50.196;8.096;2024-01-15T14:10:28;0.70;;;0.70;;
15982;SDS011;14442;50.196;8.096;2024-01-15T14:12:55;3.17;;;1.10;;
15982;SDS011;14442;50.196;8.096;2024-01-15T14:15:21;2.80;;;1.10;;
15982;SDS011;14442;50.196;8.096;2024-01-15T14:17:48;2.37;;;1.13;;
15982;SDS011;14442;50.196;8.096;2024-01-15T14:20:16;2.50;;;1.00;;
15982;SDS011;14442;50.196;8.096;2024-01-15T14:22:43;3.70;;;1.07;;
15982;SDS011;14442;50.196;8.096;2024-01-15T14:25:10;1.30;;;1.20;;
15982;SDS011;14442;50.196;8.096;2024-01-15T14:27:36;1.80;;;0.97;;
15982;SDS011;14442;50.196;8.096;2024-01-15T14:30:03;2.00;;;1.00;;
15982;SDS011;14442;50.196;8.096;2024-01-15T14:32:33;3.10;;;1.27;;
15982;SDS011;14442;50.196;8.096;2024-01-15T14:35:00;1.10;;;1.00;;
15982;SDS011;14442;50.196;8.096;2024-01-15T14:37:29;1.50;;;1.40;;
15982;SDS011;14442;50.196;8.096;2024-01-15T14:39:56;2.40;;;1.40;;
15982;SDS011;14442;50.196;8.096;2024-01-15T14:42:23;1.60;;;1.50;;
15982;SDS011;14442;50.196;8.096;2024-01-15T14:44:49;2.07;;;1.93;;
15982;SDS011;14442;50.196;8.096;2024-01-15T14:47:16;2.90;;;1.70;;
15982;SDS011;14442;50.196;8.096;2024-01-15T14:49:44;2.30;;;1.53;;